sensor_id;sensor_type;location;lat;lon;timestamp;P1;durP1;ratioP1;P2;durP2;ratioP2
10863;SDS011;5485;37.558;126.950;2023-03-14T00:01:45;7.35;;;4.90;;
10863;SDS011;5485;37.558;126.950;2023-03-14T00:04:14;7.18;;;5.13;;
10863;SDS011;5485;37.558;126.950;2023-03-14T00:09:20;12.45;;;5.18;;
10863;SDS011;5485;37.558;126.950;2023-03-14T00:11:47;12.82;;;5.93;;
10863;SDS011;5485;37.558;126.950;2023-03-14T00:14:14;12.90;;;5.63;;
10863;SDS011;5485;37.558;126.950;2023-03-14T00:16:45;12.18;;;6.00;;
10863;SDS011;5485;37.558;126.950;2023-03-14T00:19:12;11.77;;;5.38;;
10863;SDS011;5485;37.558;126.950;2023-03-14T00:21:39;12.25;;;5.82;;
10863;SDS011;5485;37.558;126.950;2023-03-14T00:24:06;13.07;;;5.40;;
10863;SDS011;5485;37.558;126.950;2023-03-14T00:26:34;8.45;;;4.78;;
10863;SDS011;5485;37.558;126.950;2023-03-14T00:29:03;19.20;;;5.15;;
10863;SDS011;5485;37.558;126.950;2023-03-14T00:31:30;17.30;;;5.47;;
10863;SDS011;5485;37.558;126.950;2023-03-14T00:33:57;15.85;;;5.53;;
10863;SDS011;5485;37.558;126.950;2023-03-14T00:36:24;14.23;;;5.38;;
10863;SDS011;5485;37.558;126.950;2023-03-14T00:38:51;10.38;;;5.20;;
10863;SDS011;5485;37.558;126.950;2023-03-14T00:41:19;7.88;;;5.40;;
10863;SDS011;5485;37.558;126.950;2023-03-14T00:43:48;15.80;;;5.03;;
10863;SDS011;5485;37.558;126.950;2023-03-14T00:46:17;12.80;;;5.20;;
10863;SDS011;5485;37.558;126.950;2023-03-14T00:48:45;14.77;;;5.93;;
10863;SDS011;5485;37.558;126.950;2023-03-14T00:51:12;11.93;;;5.30;;
10863;SDS011;5485;37.558;126.950;2023-03-14T00:53:40;12.30;;;5.45;;
10863;SDS011;5485;37.558;126.950;2023-03-14T00:56:09;14.75;;;5.72;;
10863;SDS011;5485;37.558;126.950;2023-03-14T00:58:37;17.17;;;5.53;;
10863;SDS011;5485;37.558;126.950;2023-03-14T01:01:08;17.10;;;5.82;;
10863;SDS011;5485;37.558;126.950;2023-03-14T01:03:36;11.63;;;5.45;;
10863;SDS011;5485;37.558;126.950;2023-03-14T01:08:40;12.68;;;5.00;;
10863;SDS011;5485;37.558;126.950;2023-03-14T01:11:12;15.77;;;5.72;;
10863;SDS011;5485;37.558;126.950;2023-03-14T01:13:41;15.00;;;5.25;;
10863;SDS011;5485;37.558;126.950;2023-03-14T01:16:09;13.70;;;5.20;;
10863;SDS011;5485;37.558;126.950;2023-03-14T01:18:37;16.08;;;5.85;;
10863;SDS011;5485;37.558;126.950;2023-03-14T01:21:27;15.80;;;5.63;;
10863;SDS011;5485;37.558;126.950;2023-03-14T01:23:54;13.25;;;5.07;;
10863;SDS011;5485;37.558;126.950;2023-03-14T01:26:23;13.48;;;5.22;;
10863;SDS011;5485;37.558;126.950;2023-03-14T01:28:52;14.52;;;5.70;;
10863;SDS011;5485;37.558;126.950;2023-03-14T01:31:20;21.70;;;5.60;;
10863;SDS011;5485;37.558;126.950;2023-03-14T01:33:47;17.20;;;5.85;;
10863;SDS011;5485;37.558;126.950;2023-03-14T01:36:17;12.35;;;5.43;;
10863;SDS011;5485;37.558;126.950;2023-03-14T01:38:44;6.88;;;5.57;;
10863;SDS011;5485;37.558;126.950;2023-03-14T01:41:15;15.77;;;5.35;;
10863;SDS011;5485;37.558;126.950;2023-03-14T01:43:45;15.30;;;5.07;;
10863;SDS011;5485;37.558;126.950;2023-03-14T01:46:20;14.43;;;5.22;;
10863;SDS011;5485;37.558;126.950;2023-03-14T01:51:28;15.93;;;5.40;;
10863;SDS011;5485;37.558;126.950;2023-03-14T01:56:48;12.82;;;5.05;;
10863;SDS011;5485;37.558;126.950;2023-03-14T01:59:21;14.60;;;5.15;;
10863;SDS011;5485;37.558;126.950;2023-03-14T02:01:48;14.82;;;5.30;;
10863;SDS011;5485;37.558;126.950;2023-03-14T02:04:17;11.30;;;4.82;;
10863;SDS011;5485;37.558;126.950;2023-03-14T02:06:57;15.88;;;4.57;;
10863;SDS011;5485;37.558;126.950;2023-03-14T02:09:45;9.90;;;5.07;;
10863;SDS011;5485;37.558;126.950;2023-03-14T02:12:15;9.20;;;4.43;;
10863;SDS011;5485;37.558;126.950;2023-03-14T02:14:46;11.15;;;4.22;;
10863;SDS011;5485;37.558;126.950;2023-03-14T02:17:13;14.45;;;8.65;;
10863;SDS011;5485;37.558;126.950;2023-03-14T02:22:40;9.68;;;5.13;;
10863;SDS011;5485;37.558;126.950;2023-03-14T02:28:20;10.82;;;4.88;;
10863;SDS011;5485;37.558;126.950;2023-03-14T02:30:47;8.55;;;4.07;;
10863;SDS011;5485;37.558;126.950;2023-03-14T02:33:18;15.13;;;4.25;;
10863;SDS011;5485;37.558;126.950;2023-03-14T02:35:47;24.00;;;4.60;;
10863;SDS011;5485;37.558;126.950;2023-03-14T02:40:52;10.68;;;3.85;;
10863;SDS011;5485;37.558;126.950;2023-03-14T02:43:19;15.98;;;4.05;;
10863;SDS011;5485;37.558;126.950;2023-03-14T02:45:47;10.63;;;4.03;;
10863;SDS011;5485;37.558;126.950;2023-03-14T02:50:52;16.85;;;4.78;;
10863;SDS011;5485;37.558;126.950;2023-03-14T02:53:24;11.30;;;4.50;;
10863;SDS011;5485;37.558;126.950;2023-03-14T02:55:53;14.13;;;4.38;;
10863;SDS011;5485;37.558;126.950;2023-03-14T02:58:19;16.80;;;4.13;;
10863;SDS011;5485;37.558;126.950;2023-03-14T03:00:46;9.98;;;4.20;;
10863;SDS011;5485;37.558;126.950;2023-03-14T03:03:13;13.55;;;4.07;;
10863;SDS011;5485;37.558;126.950;2023-03-14T03:05:43;10.43;;;4.68;;
10863;SDS011;5485;37.558;126.950;2023-03-14T03:08:14;13.32;;;4.25;;
10863;SDS011;5485;37.558;126.950;2023-03-14T03:10:40;9.27;;;4.07;;
10863;SDS011;5485;37.558;126.950;2023-03-14T03:13:07;8.15;;;4.13;;
10863;SDS011;5485;37.558;126.950;2023-03-14T03:15:34;13.45;;;4.43;;
10863;SDS011;5485;37.558;126.950;2023-03-14T03:18:01;14.52;;;4.35;;
10863;SDS011;5485;37.558;126.950;2023-03-14T03:20:28;24.42;;;4.75;;
10863;SDS011;5485;37.558;126.950;2023-03-14T03:22:55;12.50;;;4.72;;
10863;SDS011;5485;37.558;126.950;2023-03-14T03:25:22;12.77;;;4.25;;
10863;SDS011;5485;37.558;126.950;2023-03-14T03:27:48;11.77;;;4.90;;
10863;SDS011;5485;37.558;126.950;2023-03-14T03:30:21;14.50;;;4.05;;
10863;SDS011;5485;37.558;126.950;2023-03-14T03:32:48;7.60;;;3.78;;
10863;SDS011;5485;37.558;126.950;2023-03-14T03:35:21;9.55;;;3.53;;
10863;SDS011;5485;37.558;126.950;2023-03-14T03:37:48;9.93;;;3.53;;
10863;SDS011;5485;37.558;126.950;2023-03-14T03:40:15;8.90;;;3.50;;
10863;SDS011;5485;37.558;126.950;2023-03-14T03:42:42;14.10;;;4.35;;
10863;SDS011;5485;37.558;126.950;2023-03-14T03:45:09;13.55;;;4.10;;
10863;SDS011;5485;37.558;126.950;2023-03-14T03:47:42;8.48;;;3.42;;
10863;SDS011;5485;37.558;126.950;2023-03-14T03:50:09;9.63;;;3.50;;
10863;SDS011;5485;37.558;126.950;2023-03-14T03:52:36;13.07;;;4.07;;
10863;SDS011;5485;37.558;126.950;2023-03-14T03:55:03;10.43;;;3.38;;
10863;SDS011;5485;37.558;126.950;2023-03-14T03:57:31;10.85;;;3.67;;
10863;SDS011;5485;37.558;126.950;2023-03-14T03:59:57;11.63;;;3.67;;
10863;SDS011;5485;37.558;126.950;2023-03-14T04:02:24;9.15;;;3.92;;
10863;SDS011;5485;37.558;126.950;2023-03-14T04:04:57;10.15;;;4.38;;
10863;SDS011;5485;37.558;126.950;2023-03-14T04:07:24;14.38;;;4.55;;
10863;SDS011;5485;37.558;126.950;2023-03-14T04:09:50;15.30;;;3.85;;
10863;SDS011;5485;37.558;126.950;2023-03-14T04:12:17;9.35;;;3.60;;
10863;SDS011;5485;37.558;126.950;2023-03-14T04:14:45;10.90;;;3.17;;
10863;SDS011;5485;37.558;126.950;2023-03-14T04:17:12;8.10;;;2.80;;
10863;SDS011;5485;37.558;126.950;2023-03-14T04:19:39;13.98;;;3.50;;
10863;SDS011;5485;37.558;126.950;2023-03-14T04:22:07;11.50;;;2.97;;
10863;SDS011;5485;37.558;126.950;2023-03-14T04:24:35;4.90;;;3.25;;
10863;SDS011;5485;37.558;126.950;2023-03-14T04:27:02;9.20;;;3.20;;
10863;SDS011;5485;37.558;126.950;2023-03-14T04:29:28;9.65;;;3.05;;
10863;SDS011;5485;37.558;126.950;2023-03-14T04:31:55;12.18;;;3.08;;
10863;SDS011;5485;37.558;126.950;2023-03-14T04:34:22;10.02;;;2.63;;
10863;SDS011;5485;37.558;126.950;2023-03-14T04:36:49;11.43;;;3.15;;
10863;SDS011;5485;37.558;126.950;2023-03-14T04:39:16;9.07;;;3.00;;
10863;SDS011;5485;37.558;126.950;2023-03-14T04:41:44;8.10;;;2.80;;
10863;SDS011;5485;37.558;126.950;2023-03-14T04:44:14;10.73;;;2.65;;
10863;SDS011;5485;37.558;126.950;2023-03-14T04:46:40;4.07;;;2.63;;
10863;SDS011;5485;37.558;126.950;2023-03-14T04:49:07;9.55;;;2.60;;
10863;SDS011;5485;37.558;126.950;2023-03-14T04:51:34;12.82;;;3.10;;
10863;SDS011;5485;37.558;126.950;2023-03-14T04:54:01;9.60;;;3.20;;
10863;SDS011;5485;37.558;126.950;2023-03-14T04:56:28;10.25;;;3.33;;
10863;SDS011;5485;37.558;126.950;2023-03-14T04:58:58;9.43;;;2.85;;
10863;SDS011;5485;37.558;126.950;2023-03-14T05:01:24;12.32;;;3.70;;
10863;SDS011;5485;37.558;126.950;2023-03-14T05:03:51;10.70;;;3.47;;
10863;SDS011;5485;37.558;126.950;2023-03-14T05:06:22;7.63;;;3.20;;
10863;SDS011;5485;37.558;126.950;2023-03-14T05:08:49;17.02;;;3.50;;
10863;SDS011;5485;37.558;126.950;2023-03-14T05:11:16;10.38;;;3.72;;
10863;SDS011;5485;37.558;126.950;2023-03-14T05:13:46;10.27;;;3.85;;
10863;SDS011;5485;37.558;126.950;2023-03-14T05:16:16;8.63;;;3.40;;
10863;SDS011;5485;37.558;126.950;2023-03-14T05:18:42;8.00;;;3.42;;
10863;SDS011;5485;37.558;126.950;2023-03-14T05:21:09;5.85;;;3.72;;
10863;SDS011;5485;37.558;126.950;2023-03-14T05:23:36;7.53;;;3.90;;
10863;SDS011;5485;37.558;126.950;2023-03-14T05:26:03;13.23;;;3.50;;
10863;SDS011;5485;37.558;126.950;2023-03-14T05:28:30;12.82;;;4.15;;
10863;SDS011;5485;37.558;126.950;2023-03-14T05:30:57;9.32;;;3.17;;
10863;SDS011;5485;37.558;126.950;2023-03-14T05:33:24;10.82;;;3.10;;
10863;SDS011;5485;37.558;126.950;2023-03-14T05:35:50;12.32;;;4.22;;
10863;SDS011;5485;37.558;126.950;2023-03-14T05:38:17;11.02;;;3.58;;
10863;SDS011;5485;37.558;126.950;2023-03-14T05:40:50;8.23;;;3.35;;
10863;SDS011;5485;37.558;126.950;2023-03-14T05:43:17;9.90;;;3.83;;
10863;SDS011;5485;37.558;126.950;2023-03-14T05:45:44;6.40;;;3.60;;
10863;SDS011;5485;37.558;126.950;2023-03-14T05:48:11;9.88;;;3.53;;
10863;SDS011;5485;37.558;126.950;2023-03-14T05:50:38;10.20;;;3.85;;
10863;SDS011;5485;37.558;126.950;2023-03-14T05:53:05;6.53;;;3.50;;
10863;SDS011;5485;37.558;126.950;2023-03-14T05:55:32;9.00;;;4.03;;
10863;SDS011;5485;37.558;126.950;2023-03-14T05:57:58;10.20;;;3.78;;
10863;SDS011;5485;37.558;126.950;2023-03-14T06:00:25;7.03;;;3.83;;
10863;SDS011;5485;37.558;126.950;2023-03-14T06:02:52;19.08;;;4.30;;
10863;SDS011;5485;37.558;126.950;2023-03-14T06:05:19;7.00;;;3.83;;
10863;SDS011;5485;37.558;126.950;2023-03-14T06:07:46;12.98;;;4.20;;
10863;SDS011;5485;37.558;126.950;2023-03-14T06:10:14;11.48;;;3.70;;
10863;SDS011;5485;37.558;126.950;2023-03-14T06:12:44;13.60;;;4.35;;
10863;SDS011;5485;37.558;126.950;2023-03-14T06:15:11;11.50;;;4.20;;
10863;SDS011;5485;37.558;126.950;2023-03-14T06:17:37;12.02;;;3.95;;
10863;SDS011;5485;37.558;126.950;2023-03-14T06:20:04;12.98;;;5.15;;
10863;SDS011;5485;37.558;126.950;2023-03-14T06:22:35;11.93;;;4.50;;
10863;SDS011;5485;37.558;126.950;2023-03-14T06:25:03;6.45;;;4.40;;
10863;SDS011;5485;37.558;126.950;2023-03-14T06:27:34;11.88;;;4.53;;
10863;SDS011;5485;37.558;126.950;2023-03-14T06:30:01;8.82;;;4.05;;
10863;SDS011;5485;37.558;126.950;2023-03-14T06:32:28;6.32;;;3.97;;
10863;SDS011;5485;37.558;126.950;2023-03-14T06:34:55;12.50;;;4.25;;
10863;SDS011;5485;37.558;126.950;2023-03-14T06:37:26;8.18;;;4.10;;
10863;SDS011;5485;37.558;126.950;2023-03-14T06:39:54;6.97;;;4.07;;
10863;SDS011;5485;37.558;126.950;2023-03-14T06:42:21;10.73;;;4.00;;
10863;SDS011;5485;37.558;126.950;2023-03-14T06:44:48;9.80;;;3.92;;
10863;SDS011;5485;37.558;126.950;2023-03-14T06:47:21;13.63;;;4.32;;
10863;SDS011;5485;37.558;126.950;2023-03-14T06:49:50;6.00;;;4.40;;
10863;SDS011;5485;37.558;126.950;2023-03-14T06:52:17;10.93;;;3.95;;
10863;SDS011;5485;37.558;126.950;2023-03-14T06:54:44;14.60;;;4.28;;
10863;SDS011;5485;37.558;126.950;2023-03-14T06:57:11;13.40;;;4.40;;
10863;SDS011;5485;37.558;126.950;2023-03-14T06:59:38;8.75;;;4.55;;
10863;SDS011;5485;37.558;126.950;2023-03-14T07:02:07;7.57;;;4.07;;
10863;SDS011;5485;37.558;126.950;2023-03-14T07:04:38;8.57;;;4.20;;
10863;SDS011;5485;37.558;126.950;2023-03-14T07:07:05;6.47;;;3.95;;
10863;SDS011;5485;37.558;126.950;2023-03-14T07:09:35;8.18;;;4.05;;
10863;SDS011;5485;37.558;126.950;2023-03-14T07:12:02;10.65;;;4.63;;
10863;SDS011;5485;37.558;126.950;2023-03-14T07:14:29;15.20;;;4.70;;
10863;SDS011;5485;37.558;126.950;2023-03-14T07:16:59;13.85;;;4.63;;
10863;SDS011;5485;37.558;126.950;2023-03-14T07:19:26;10.52;;;4.53;;
10863;SDS011;5485;37.558;126.950;2023-03-14T07:21:55;8.48;;;4.65;;
10863;SDS011;5485;37.558;126.950;2023-03-14T07:24:23;12.10;;;4.32;;
10863;SDS011;5485;37.558;126.950;2023-03-14T07:26:53;13.90;;;5.03;;
10863;SDS011;5485;37.558;126.950;2023-03-14T07:29:22;11.93;;;5.00;;
10863;SDS011;5485;37.558;126.950;2023-03-14T07:31:49;7.45;;;4.00;;
10863;SDS011;5485;37.558;126.950;2023-03-14T07:34:16;8.30;;;4.38;;
10863;SDS011;5485;37.558;126.950;2023-03-14T07:36:43;9.48;;;4.45;;
10863;SDS011;5485;37.558;126.950;2023-03-14T07:39:09;8.32;;;4.45;;
10863;SDS011;5485;37.558;126.950;2023-03-14T07:41:36;11.00;;;4.63;;
10863;SDS011;5485;37.558;126.950;2023-03-14T07:44:03;8.82;;;4.25;;
10863;SDS011;5485;37.558;126.950;2023-03-14T07:46:30;7.90;;;4.72;;
10863;SDS011;5485;37.558;126.950;2023-03-14T07:48:57;10.02;;;4.20;;
10863;SDS011;5485;37.558;126.950;2023-03-14T07:51:24;12.85;;;4.65;;
10863;SDS011;5485;37.558;126.950;2023-03-14T07:53:51;11.70;;;4.28;;
10863;SDS011;5485;37.558;126.950;2023-03-14T07:56:17;12.38;;;4.50;;
10863;SDS011;5485;37.558;126.950;2023-03-14T07:58:44;9.10;;;4.57;;
10863;SDS011;5485;37.558;126.950;2023-03-14T08:01:11;8.95;;;4.82;;
10863;SDS011;5485;37.558;126.950;2023-03-14T08:03:38;11.25;;;4.95;;
10863;SDS011;5485;37.558;126.950;2023-03-14T08:06:05;8.60;;;4.28;;
10863;SDS011;5485;37.558;126.950;2023-03-14T08:08:32;10.85;;;4.43;;
10863;SDS011;5485;37.558;126.950;2023-03-14T08:11:03;10.43;;;5.20;;
10863;SDS011;5485;37.558;126.950;2023-03-14T08:13:31;11.73;;;5.05;;
10863;SDS011;5485;37.558;126.950;2023-03-14T08:15:58;11.13;;;5.05;;
10863;SDS011;5485;37.558;126.950;2023-03-14T08:18:25;11.43;;;5.47;;
10863;SDS011;5485;37.558;126.950;2023-03-14T08:20:52;9.32;;;5.05;;
10863;SDS011;5485;37.558;126.950;2023-03-14T08:23:18;10.75;;;5.53;;
10863;SDS011;5485;37.558;126.950;2023-03-14T08:25:47;10.88;;;4.72;;
10863;SDS011;5485;37.558;126.950;2023-03-14T08:28:16;11.82;;;5.45;;
10863;SDS011;5485;37.558;126.950;2023-03-14T08:30:49;10.63;;;5.63;;
10863;SDS011;5485;37.558;126.950;2023-03-14T08:33:15;8.80;;;5.07;;
10863;SDS011;5485;37.558;126.950;2023-03-14T08:35:42;10.07;;;5.00;;
10863;SDS011;5485;37.558;126.950;2023-03-14T08:38:09;17.90;;;4.93;;
10863;SDS011;5485;37.558;126.950;2023-03-14T08:40:36;13.65;;;5.70;;
10863;SDS011;5485;37.558;126.950;2023-03-14T08:43:03;7.57;;;4.93;;
10863;SDS011;5485;37.558;126.950;2023-03-14T08:45:30;8.65;;;5.00;;
10863;SDS011;5485;37.558;126.950;2023-03-14T08:47:57;9.85;;;5.00;;
10863;SDS011;5485;37.558;126.950;2023-03-14T08:50:24;10.98;;;5.63;;
10863;SDS011;5485;37.558;126.950;2023-03-14T08:52:53;13.88;;;6.35;;
10863;SDS011;5485;37.558;126.950;2023-03-14T08:55:22;10.00;;;5.20;;
10863;SDS011;5485;37.558;126.950;2023-03-14T08:57:49;14.40;;;4.78;;
10863;SDS011;5485;37.558;126.950;2023-03-14T09:00:16;9.85;;;4.43;;
10863;SDS011;5485;37.558;126.950;2023-03-14T09:02:44;6.68;;;4.28;;
10863;SDS011;5485;37.558;126.950;2023-03-14T09:05:11;9.52;;;4.32;;
10863;SDS011;5485;37.558;126.950;2023-03-14T09:07:38;6.60;;;3.85;;
10863;SDS011;5485;37.558;126.950;2023-03-14T09:10:06;9.15;;;3.97;;
10863;SDS011;5485;37.558;126.950;2023-03-14T09:12:34;7.72;;;3.88;;
10863;SDS011;5485;37.558;126.950;2023-03-14T09:15:02;11.82;;;3.75;;
10863;SDS011;5485;37.558;126.950;2023-03-14T09:17:29;6.38;;;3.50;;
10863;SDS011;5485;37.558;126.950;2023-03-14T09:19:56;10.95;;;3.70;;
10863;SDS011;5485;37.558;126.950;2023-03-14T09:22:23;5.65;;;3.75;;
10863;SDS011;5485;37.558;126.950;2023-03-14T09:24:51;6.35;;;3.63;;
10863;SDS011;5485;37.558;126.950;2023-03-14T09:27:18;6.38;;;3.10;;
10863;SDS011;5485;37.558;126.950;2023-03-14T09:29:45;9.63;;;3.03;;
10863;SDS011;5485;37.558;126.950;2023-03-14T09:32:12;9.85;;;2.70;;
10863;SDS011;5485;37.558;126.950;2023-03-14T09:34:38;3.15;;;2.85;;
10863;SDS011;5485;37.558;126.950;2023-03-14T09:37:05;4.82;;;2.65;;
10863;SDS011;5485;37.558;126.950;2023-03-14T09:39:32;6.57;;;2.67;;
10863;SDS011;5485;37.558;126.950;2023-03-14T09:42:00;6.63;;;3.08;;
10863;SDS011;5485;37.558;126.950;2023-03-14T09:44:32;8.40;;;2.60;;
10863;SDS011;5485;37.558;126.950;2023-03-14T09:47:05;7.90;;;2.40;;
10863;SDS011;5485;37.558;126.950;2023-03-14T09:49:37;9.95;;;2.97;;
10863;SDS011;5485;37.558;126.950;2023-03-14T09:52:10;4.85;;;2.58;;
10863;SDS011;5485;37.558;126.950;2023-03-14T09:54:51;9.13;;;2.90;;
10863;SDS011;5485;37.558;126.950;2023-03-14T09:57:25;4.45;;;2.97;;
10863;SDS011;5485;37.558;126.950;2023-03-14T09:59:57;7.15;;;3.17;;
10863;SDS011;5485;37.558;126.950;2023-03-14T10:02:40;3.30;;;2.50;;
10863;SDS011;5485;37.558;126.950;2023-03-14T10:05:16;5.57;;;2.72;;
10863;SDS011;5485;37.558;126.950;2023-03-14T10:07:46;6.30;;;2.90;;
10863;SDS011;5485;37.558;126.950;2023-03-14T10:10:17;2.92;;;2.42;;
10863;SDS011;5485;37.558;126.950;2023-03-14T10:12:56;5.18;;;2.88;;
10863;SDS011;5485;37.558;126.950;2023-03-14T10:15:32;7.25;;;3.58;;
10863;SDS011;5485;37.558;126.950;2023-03-14T10:18:01;11.32;;;3.40;;
10863;SDS011;5485;37.558;126.950;2023-03-14T10:25:31;6.65;;;3.28;;
10863;SDS011;5485;37.558;126.950;2023-03-14T10:27:59;6.78;;;3.35;;
10863;SDS011;5485;37.558;126.950;2023-03-14T10:30:29;7.50;;;3.90;;
10863;SDS011;5485;37.558;126.950;2023-03-14T10:32:56;10.90;;;3.80;;
10863;SDS011;5485;37.558;126.950;2023-03-14T10:35:33;3.80;;;3.33;;
10863;SDS011;5485;37.558;126.950;2023-03-14T10:38:01;9.60;;;3.88;;
10863;SDS011;5485;37.558;126.950;2023-03-14T10:40:34;10.75;;;5.10;;
10863;SDS011;5485;37.558;126.950;2023-03-14T10:43:06;8.43;;;4.45;;
10863;SDS011;5485;37.558;126.950;2023-03-14T10:45:42;12.52;;;4.70;;
10863;SDS011;5485;37.558;126.950;2023-03-14T10:51:02;9.38;;;4.97;;
10863;SDS011;5485;37.558;126.950;2023-03-14T10:54:13;12.52;;;4.35;;
10863;SDS011;5485;37.558;126.950;2023-03-14T10:56:23;9.57;;;4.05;;
10863;SDS011;5485;37.558;126.950;2023-03-14T10:58:52;9.27;;;3.58;;
10863;SDS011;5485;37.558;126.950;2023-03-14T11:15:11;7.70;;;3.55;;
10863;SDS011;5485;37.558;126.950;2023-03-14T11:28:49;8.55;;;4.35;;
10863;SDS011;5485;37.558;126.950;2023-03-14T11:31:29;14.48;;;4.32;;
10863;SDS011;5485;37.558;126.950;2023-03-14T11:40:04;14.33;;;5.43;;
10863;SDS011;5485;37.558;126.950;2023-03-14T11:42:49;12.88;;;4.65;;
10863;SDS011;5485;37.558;126.950;2023-03-14T11:45:38;10.00;;;4.82;;
10863;SDS011;5485;37.558;126.950;2023-03-14T11:51:05;12.73;;;5.87;;
10863;SDS011;5485;37.558;126.950;2023-03-14T11:56:31;11.80;;;6.40;;
10863;SDS011;5485;37.558;126.950;2023-03-14T12:05:32;11.85;;;5.22;;
10863;SDS011;5485;37.558;126.950;2023-03-14T12:10:38;15.70;;;5.55;;
10863;SDS011;5485;37.558;126.950;2023-03-14T12:13:13;9.32;;;4.95;;
10863;SDS011;5485;37.558;126.950;2023-03-14T12:15:46;16.20;;;5.25;;
10863;SDS011;5485;37.558;126.950;2023-03-14T12:18:34;18.80;;;6.60;;
10863;SDS011;5485;37.558;126.950;2023-03-14T12:21:04;15.93;;;4.82;;
10863;SDS011;5485;37.558;126.950;2023-03-14T12:26:17;7.78;;;4.88;;
10863;SDS011;5485;37.558;126.950;2023-03-14T12:29:11;11.20;;;4.88;;
10863;SDS011;5485;37.558;126.950;2023-03-14T12:31:43;9.40;;;4.55;;
10863;SDS011;5485;37.558;126.950;2023-03-14T12:46:58;12.17;;;5.23;;
10863;SDS011;5485;37.558;126.950;2023-03-14T12:49:43;13.40;;;5.47;;
10863;SDS011;5485;37.558;126.950;2023-03-14T12:52:15;7.78;;;5.05;;
10863;SDS011;5485;37.558;126.950;2023-03-14T12:57:54;11.00;;;5.20;;
10863;SDS011;5485;37.558;126.950;2023-03-14T13:00:33;12.38;;;5.10;;
10863;SDS011;5485;37.558;126.950;2023-03-14T13:03:02;10.93;;;5.10;;
10863;SDS011;5485;37.558;126.950;2023-03-14T13:05:54;10.17;;;4.90;;
10863;SDS011;5485;37.558;126.950;2023-03-14T13:08:40;9.18;;;4.63;;
10863;SDS011;5485;37.558;126.950;2023-03-14T13:11:14;10.27;;;4.63;;
10863;SDS011;5485;37.558;126.950;2023-03-14T13:13:49;7.50;;;4.50;;
10863;SDS011;5485;37.558;126.950;2023-03-14T13:16:23;14.45;;;5.07;;
10863;SDS011;5485;37.558;126.950;2023-03-14T13:18:58;11.80;;;5.33;;
10863;SDS011;5485;37.558;126.950;2023-03-14T13:21:35;11.37;;;4.50;;
10863;SDS011;5485;37.558;126.950;2023-03-14T13:24:05;14.25;;;4.75;;
10863;SDS011;5485;37.558;126.950;2023-03-14T13:26:44;8.77;;;4.55;;
10863;SDS011;5485;37.558;126.950;2023-03-14T13:29:32;6.77;;;5.03;;
10863;SDS011;5485;37.558;126.950;2023-03-14T13:32:12;15.97;;;4.80;;
10863;SDS011;5485;37.558;126.950;2023-03-14T13:34:47;6.73;;;5.27;;
10863;SDS011;5485;37.558;126.950;2023-03-14T13:37:19;9.87;;;4.93;;
10863;SDS011;5485;37.558;126.950;2023-03-14T13:39:55;12.50;;;5.40;;
10863;SDS011;5485;37.558;126.950;2023-03-14T13:42:29;16.23;;;5.63;;
10863;SDS011;5485;37.558;126.950;2023-03-14T13:44:59;10.53;;;5.27;;
10863;SDS011;5485;37.558;126.950;2023-03-14T13:47:26;15.73;;;5.10;;
10863;SDS011;5485;37.558;126.950;2023-03-14T13:49:55;18.43;;;6.70;;
10863;SDS011;5485;37.558;126.950;2023-03-14T13:52:31;12.13;;;6.10;;
10863;SDS011;5485;37.558;126.950;2023-03-14T13:55:02;9.30;;;5.60;;
10863;SDS011;5485;37.558;126.950;2023-03-14T13:57:52;9.77;;;5.20;;
10863;SDS011;5485;37.558;126.950;2023-03-14T14:00:27;8.20;;;5.03;;
10863;SDS011;5485;37.558;126.950;2023-03-14T14:02:56;11.87;;;5.37;;
10863;SDS011;5485;37.558;126.950;2023-03-14T14:05:29;13.67;;;6.20;;
10863;SDS011;5485;37.558;126.950;2023-03-14T14:08:06;12.80;;;6.00;;
10863;SDS011;5485;37.558;126.950;2023-03-14T14:10:37;11.13;;;6.10;;
10863;SDS011;5485;37.558;126.950;2023-03-14T14:13:04;13.07;;;5.80;;
10863;SDS011;5485;37.558;126.950;2023-03-14T14:15:37;13.33;;;6.17;;
10863;SDS011;5485;37.558;126.950;2023-03-14T14:18:11;10.93;;;5.20;;
10863;SDS011;5485;37.558;126.950;2023-03-14T14:20:42;12.67;;;6.17;;
10863;SDS011;5485;37.558;126.950;2023-03-14T14:23:11;11.33;;;5.37;;
10863;SDS011;5485;37.558;126.950;2023-03-14T14:25:44;9.93;;;5.53;;
10863;SDS011;5485;37.558;126.950;2023-03-14T14:28:17;11.23;;;6.07;;
10863;SDS011;5485;37.558;126.950;2023-03-14T14:36:28;11.90;;;6.23;;
10863;SDS011;5485;37.558;126.950;2023-03-14T14:41:41;13.27;;;5.90;;
10863;SDS011;5485;37.558;126.950;2023-03-14T14:44:12;11.83;;;6.37;;
10863;SDS011;5485;37.558;126.950;2023-03-14T14:46:45;16.93;;;6.67;;
10863;SDS011;5485;37.558;126.950;2023-03-14T14:49:13;14.10;;;6.57;;
10863;SDS011;5485;37.558;126.950;2023-03-14T14:51:46;12.87;;;6.87;;
10863;SDS011;5485;37.558;126.950;2023-03-14T14:54:17;12.93;;;6.07;;
10863;SDS011;5485;37.558;126.950;2023-03-14T14:56:51;16.20;;;7.07;;
10863;SDS011;5485;37.558;126.950;2023-03-14T14:59:20;15.47;;;7.40;;
10863;SDS011;5485;37.558;126.950;2023-03-14T15:01:49;13.17;;;7.13;;
10863;SDS011;5485;37.558;126.950;2023-03-14T15:04:20;13.07;;;6.80;;
10863;SDS011;5485;37.558;126.950;2023-03-14T15:06:48;15.17;;;6.60;;
10863;SDS011;5485;37.558;126.950;2023-03-14T15:09:18;13.63;;;6.80;;
10863;SDS011;5485;37.558;126.950;2023-03-14T15:11:46;18.67;;;7.40;;
10863;SDS011;5485;37.558;126.950;2023-03-14T15:14:13;17.63;;;7.27;;
10863;SDS011;5485;37.558;126.950;2023-03-14T15:16:40;12.43;;;6.80;;
10863;SDS011;5485;37.558;126.950;2023-03-14T15:19:12;10.97;;;7.27;;
10863;SDS011;5485;37.558;126.950;2023-03-14T15:21:46;14.87;;;7.73;;
10863;SDS011;5485;37.558;126.950;2023-03-14T15:24:13;16.63;;;7.30;;
10863;SDS011;5485;37.558;126.950;2023-03-14T15:26:43;11.77;;;6.20;;
10863;SDS011;5485;37.558;126.950;2023-03-14T15:29:10;18.77;;;8.37;;
10863;SDS011;5485;37.558;126.950;2023-03-14T15:31:38;14.20;;;7.63;;
10863;SDS011;5485;37.558;126.950;2023-03-14T15:34:05;8.73;;;6.60;;
10863;SDS011;5485;37.558;126.950;2023-03-14T15:36:33;18.23;;;7.50;;
10863;SDS011;5485;37.558;126.950;2023-03-14T15:39:06;12.53;;;7.27;;
10863;SDS011;5485;37.558;126.950;2023-03-14T15:41:35;11.97;;;6.90;;
10863;SDS011;5485;37.558;126.950;2023-03-14T15:44:02;12.27;;;6.80;;
10863;SDS011;5485;37.558;126.950;2023-03-14T15:46:29;15.97;;;7.43;;
10863;SDS011;5485;37.558;126.950;2023-03-14T15:48:56;10.23;;;7.90;;
10863;SDS011;5485;37.558;126.950;2023-03-14T15:51:26;13.33;;;7.67;;
10863;SDS011;5485;37.558;126.950;2023-03-14T15:53:53;13.80;;;8.10;;
10863;SDS011;5485;37.558;126.950;2023-03-14T15:56:20;14.00;;;7.60;;
10863;SDS011;5485;37.558;126.950;2023-03-14T15:58:50;11.77;;;6.80;;
10863;SDS011;5485;37.558;126.950;2023-03-14T16:01:37;8.67;;;7.17;;
10863;SDS011;5485;37.558;126.950;2023-03-14T16:04:04;14.17;;;7.83;;
10863;SDS011;5485;37.558;126.950;2023-03-14T16:06:30;13.53;;;7.53;;
10863;SDS011;5485;37.558;126.950;2023-03-14T16:08:57;13.73;;;7.43;;
10863;SDS011;5485;37.558;126.950;2023-03-14T16:11:24;11.23;;;7.37;;
10863;SDS011;5485;37.558;126.950;2023-03-14T16:13:51;12.57;;;7.57;;
10863;SDS011;5485;37.558;126.950;2023-03-14T16:16:18;14.07;;;7.90;;
10863;SDS011;5485;37.558;126.950;2023-03-14T16:18:45;17.33;;;7.47;;
10863;SDS011;5485;37.558;126.950;2023-03-14T16:21:17;12.30;;;7.47;;
10863;SDS011;5485;37.558;126.950;2023-03-14T16:23:45;10.43;;;7.60;;